createdAt,value
2018-07-03T00:00:35.001Z,94.00
2018-07-03T00:03:05.200Z,93.90
2018-07-03T00:05:35.307Z,93.90
2018-07-03T00:08:05.492Z,93.80
2018-07-03T00:13:05.408Z,93.90
2018-07-03T00:15:35.523Z,93.90
2018-07-03T00:18:05.915Z,94.00
2018-07-03T00:20:35.998Z,94.10
2018-07-03T00:25:36.373Z,94.30
2018-07-03T00:28:06.684Z,94.50
2018-07-03T00:30:36.921Z,94.60
2018-07-03T00:33:07.256Z,94.70
2018-07-03T00:35:37.357Z,94.70
2018-07-03T00:38:07.793Z,94.80
2018-07-03T00:40:37.904Z,95.00
2018-07-03T00:43:08.024Z,95.00
2018-07-03T00:45:38.140Z,94.90
2018-07-03T00:48:08.292Z,95.00
2018-07-03T00:50:38.405Z,95.00
2018-07-03T00:53:08.846Z,95.00
2018-07-03T00:55:38.971Z,95.40
2018-07-03T00:58:09.076Z,95.40
2018-07-03T01:00:39.326Z,95.50
2018-07-03T01:03:09.568Z,95.60
2018-07-03T01:05:39.747Z,95.50
2018-07-03T01:08:09.849Z,95.50
2018-07-03T01:10:39.980Z,95.60
2018-07-03T01:13:10.543Z,95.50
2018-07-03T01:18:37.609Z,95.80
2018-07-03T01:21:07.748Z,96.10
2018-07-03T01:23:37.861Z,96.10
2018-07-03T01:26:07.989Z,95.90
2018-07-03T01:28:38.099Z,96.00
2018-07-03T01:31:08.312Z,96.20
2018-07-03T01:33:38.394Z,96.10
2018-07-03T01:36:08.553Z,95.90
2018-07-03T01:38:38.668Z,95.90
2018-07-03T01:41:08.817Z,95.90
2018-07-03T01:43:38.958Z,95.90
2018-07-03T01:46:09.207Z,95.90
2018-07-03T01:48:39.299Z,96.00
2018-07-03T01:51:09.403Z,96.10
2018-07-03T01:56:56.485Z,96.50
2018-07-03T01:59:26.598Z,96.40
2018-07-03T02:01:56.689Z,96.40
2018-07-03T02:04:26.808Z,96.30
2018-07-03T02:06:58.756Z,96.30
2018-07-03T02:09:29.213Z,96.30
2018-07-03T02:11:59.669Z,96.70
2018-07-03T02:14:30.304Z,96.50
2018-07-03T02:17:01.336Z,96.50
2018-07-03T02:19:31.585Z,96.50
2018-07-03T02:22:01.687Z,96.30
2018-07-03T02:24:31.789Z,96.20
2018-07-03T02:27:01.972Z,96.20
2018-07-03T02:29:32.099Z,96.10
2018-07-03T02:32:02.258Z,96.00
2018-07-03T02:34:32.366Z,96.10
2018-07-03T02:37:02.483Z,96.20
2018-07-03T02:39:32.596Z,96.40
2018-07-03T02:42:02.708Z,96.70
2018-07-03T02:44:32.802Z,96.70
2018-07-03T02:47:02.896Z,96.80
2018-07-03T02:49:33.016Z,96.80
2018-07-03T02:52:03.143Z,96.80
2018-07-03T02:54:33.260Z,96.80
2018-07-03T02:57:03.424Z,96.90
2018-07-03T02:59:33.623Z,97.10
2018-07-03T03:02:03.747Z,97.20
2018-07-03T03:04:34.121Z,97.20
2018-07-03T03:07:04.354Z,97.20
2018-07-03T03:09:34.485Z,97.00
2018-07-03T03:12:04.669Z,96.70
2018-07-03T03:14:34.772Z,96.40
2018-07-03T03:17:04.916Z,96.40
2018-07-03T03:19:34.998Z,96.20
2018-07-03T03:22:05.179Z,96.60
2018-07-03T03:24:35.268Z,96.00
2018-07-03T03:27:05.444Z,95.70
2018-07-03T03:29:35.614Z,95.70
2018-07-03T03:32:05.741Z,95.90
2018-07-03T03:34:35.825Z,96.10
2018-07-03T03:37:06.993Z,96.30
2018-07-03T03:39:37.100Z,96.30
2018-07-03T03:42:07.279Z,96.20
2018-07-03T03:44:37.375Z,95.80
2018-07-03T03:47:07.496Z,95.90
2018-07-03T03:49:37.576Z,96.30
2018-07-03T03:52:07.848Z,96.40
2018-07-03T03:54:37.964Z,96.20
2018-07-03T03:57:08.178Z,95.90
2018-07-03T03:59:38.280Z,95.80
2018-07-03T04:02:08.417Z,95.70
2018-07-03T04:04:38.549Z,95.60
2018-07-03T04:07:08.721Z,95.50
2018-07-03T04:09:38.820Z,95.30
2018-07-03T04:12:09.388Z,95.10
2018-07-03T04:14:39.506Z,95.00
2018-07-03T04:17:09.620Z,95.10
2018-07-03T04:19:39.744Z,95.20
2018-07-03T04:22:09.828Z,95.20
2018-07-03T04:24:39.933Z,95.10
2018-07-03T04:27:10.132Z,94.90
2018-07-03T04:29:40.248Z,94.90
2018-07-03T04:32:10.324Z,95.30
2018-07-03T04:34:43.416Z,95.20
2018-07-03T04:37:13.528Z,94.80
2018-07-03T04:39:43.704Z,94.60
2018-07-03T04:42:13.776Z,94.40
2018-07-03T04:44:43.876Z,94.30
2018-07-03T04:47:13.976Z,94.30
2018-07-03T04:49:44.221Z,94.50
2018-07-03T04:52:14.296Z,94.60
2018-07-03T04:54:44.384Z,94.50
2018-07-03T04:57:14.484Z,94.40
2018-07-03T04:59:44.575Z,94.50
2018-07-03T05:02:14.705Z,94.50
2018-07-03T05:04:44.781Z,94.50
2018-07-03T05:09:44.578Z,94.50
2018-07-03T05:12:14.664Z,94.40
2018-07-03T05:14:44.883Z,94.30
2018-07-03T05:17:15.108Z,94.20
2018-07-03T05:19:45.205Z,94.00
2018-07-03T05:22:15.304Z,94.20
2018-07-03T05:27:15.173Z,94.60
2018-07-03T05:29:45.263Z,94.20
2018-07-03T05:32:15.447Z,94.30
2018-07-03T05:34:45.573Z,94.30
2018-07-03T05:37:15.757Z,94.40
2018-07-03T05:39:45.899Z,94.10
2018-07-03T05:42:16.027Z,94.00
2018-07-03T05:44:46.136Z,94.20
2018-07-03T05:47:16.232Z,94.50
2018-07-03T05:49:46.320Z,94.50
2018-07-03T05:52:16.431Z,94.40
2018-07-03T05:54:46.536Z,94.00
2018-07-03T05:57:16.628Z,94.20
2018-07-03T05:59:46.741Z,94.40
2018-07-03T06:02:16.872Z,94.10
2018-07-03T06:04:46.996Z,93.70
2018-07-03T06:07:17.091Z,93.80
2018-07-03T06:09:47.201Z,93.10
2018-07-03T06:12:17.323Z,93.20
2018-07-03T06:14:47.449Z,92.90
2018-07-03T06:17:17.612Z,92.90
2018-07-03T06:19:47.788Z,92.90
2018-07-03T06:22:17.868Z,93.10
2018-07-03T06:24:48.106Z,92.30
2018-07-03T06:27:18.257Z,92.10
2018-07-03T06:29:48.316Z,91.80
2018-07-03T06:32:18.476Z,91.60
2018-07-03T06:34:48.544Z,91.80
2018-07-03T06:37:18.709Z,91.10
2018-07-03T06:42:18.482Z,90.70
2018-07-03T06:44:48.643Z,91.60
2018-07-03T06:47:18.912Z,91.50
2018-07-03T06:49:48.992Z,91.60
2018-07-03T06:52:19.140Z,91.60
2018-07-03T06:54:49.316Z,91.30
2018-07-03T06:57:19.436Z,90.80
2018-07-03T06:59:49.528Z,91.10
2018-07-03T07:02:19.623Z,90.80
2018-07-03T07:04:49.815Z,91.10
2018-07-03T07:07:20.076Z,91.00
2018-07-03T07:09:50.268Z,90.80
2018-07-03T07:12:20.357Z,90.60
2018-07-03T07:14:50.470Z,90.30
2018-07-03T07:17:20.604Z,90.40
2018-07-03T07:19:50.820Z,90.40
2018-07-03T07:22:20.912Z,90.60
2018-07-03T07:24:51.115Z,90.50
2018-07-03T07:27:21.302Z,90.40
2018-07-03T07:29:51.418Z,89.00
2018-07-03T07:32:21.537Z,89.30
2018-07-03T07:34:51.620Z,89.80
2018-07-03T07:37:21.733Z,90.00
2018-07-03T07:39:51.834Z,89.80
2018-07-03T07:42:21.935Z,88.70
2018-07-03T07:44:52.040Z,88.60
2018-07-03T07:47:22.144Z,88.30
2018-07-03T07:49:52.217Z,87.40
2018-07-03T07:52:22.324Z,88.30
2018-07-03T07:54:52.484Z,88.10
2018-07-03T07:57:22.541Z,87.90
2018-07-03T07:59:52.767Z,86.80
2018-07-03T08:02:22.868Z,87.30
2018-07-03T08:04:52.988Z,86.70
2018-07-03T08:07:23.108Z,87.30
2018-07-03T08:09:53.255Z,86.90
2018-07-03T08:12:23.383Z,87.50
2018-07-03T08:14:53.632Z,87.10
2018-07-03T08:17:23.723Z,85.60
2018-07-03T08:19:53.864Z,84.20
2018-07-03T08:22:23.972Z,84.00
2018-07-03T08:24:54.044Z,83.10
2018-07-03T08:27:24.168Z,83.30
2018-07-03T08:29:54.318Z,83.00
2018-07-03T08:32:24.486Z,79.60
2018-07-03T08:34:54.583Z,79.10
2018-07-03T08:37:24.709Z,80.60
2018-07-03T08:39:54.796Z,81.50
2018-07-03T08:42:24.916Z,83.80
2018-07-03T08:44:55.133Z,82.60
2018-07-03T08:47:25.280Z,84.10
2018-07-03T08:49:55.396Z,82.50
2018-07-03T08:52:25.519Z,85.70
2018-07-03T08:54:55.608Z,85.00
2018-07-03T08:57:25.752Z,84.00
2018-07-03T08:59:55.864Z,83.60
2018-07-03T09:02:26.072Z,83.50
2018-07-03T09:04:56.172Z,83.30
2018-07-03T09:07:26.264Z,81.80
2018-07-03T09:09:56.362Z,82.80
2018-07-03T09:12:26.488Z,85.20
2018-07-03T09:14:56.611Z,83.00
2018-07-03T09:17:30.332Z,81.50
2018-07-03T09:20:01.686Z,82.20
2018-07-03T09:22:32.592Z,82.30
2018-07-03T09:25:03.088Z,80.70
2018-07-03T09:27:33.205Z,81.30
2018-07-03T09:30:03.356Z,79.80
2018-07-03T09:32:33.484Z,80.50
2018-07-03T09:35:03.620Z,81.10
2018-07-03T09:37:33.748Z,81.20
2018-07-03T09:40:03.896Z,83.70
2018-07-03T09:42:34.037Z,83.50
2018-07-03T09:45:05.009Z,83.50
2018-07-03T09:47:35.136Z,83.70
2018-07-03T09:50:05.271Z,82.70
2018-07-03T09:52:35.751Z,83.50
2018-07-03T09:55:05.957Z,81.50
2018-07-03T09:57:36.005Z,82.60
2018-07-03T10:00:07.202Z,82.60
2018-07-03T10:02:37.653Z,82.20
2018-07-03T10:05:07.808Z,82.20
2018-07-03T10:07:37.908Z,81.20
2018-07-03T10:10:08.028Z,80.80
2018-07-03T10:12:38.106Z,80.40
2018-07-03T10:15:08.240Z,80.90
2018-07-03T10:17:38.328Z,80.40
2018-07-03T10:20:08.504Z,79.70
2018-07-03T10:22:38.551Z,79.30
2018-07-03T10:25:08.680Z,79.70
2018-07-03T10:27:38.767Z,79.60
2018-07-03T10:30:08.916Z,79.60
2018-07-03T10:32:39.116Z,78.10
2018-07-03T10:35:09.199Z,77.90
2018-07-03T10:37:39.336Z,78.50
2018-07-03T10:40:09.448Z,78.90
2018-07-03T10:42:39.551Z,76.80
2018-07-03T10:45:09.740Z,76.60
2018-07-03T10:47:39.916Z,78.10
2018-07-03T10:50:09.988Z,77.40
2018-07-03T10:52:40.177Z,76.60
2018-07-03T10:57:39.964Z,75.30
2018-07-03T11:00:10.068Z,75.40
2018-07-03T11:02:40.172Z,75.40
2018-07-03T11:05:10.271Z,76.60
2018-07-03T11:07:40.388Z,75.20
2018-07-03T11:10:10.475Z,74.80
2018-07-03T11:12:40.572Z,74.00
2018-07-03T11:15:10.804Z,73.80
2018-07-03T11:17:40.912Z,74.70
2018-07-03T11:20:11.099Z,74.10
2018-07-03T11:22:41.180Z,75.50
2018-07-03T11:25:11.348Z,73.20
2018-07-03T11:27:41.512Z,73.10
2018-07-03T11:30:11.600Z,73.00
2018-07-03T11:32:41.708Z,72.70
2018-07-03T11:35:12.060Z,72.70
2018-07-03T11:37:42.250Z,72.40
2018-07-03T11:40:12.281Z,71.30
2018-07-03T11:42:42.473Z,70.40
2018-07-03T11:45:12.588Z,69.20
2018-07-03T11:47:42.741Z,68.70
2018-07-03T11:50:12.868Z,68.00
2018-07-03T11:52:42.967Z,68.00
2018-07-03T11:55:13.116Z,67.60
2018-07-03T11:57:43.208Z,68.40
2018-07-03T12:00:13.417Z,66.50
2018-07-03T12:02:43.524Z,65.40
2018-07-03T12:05:13.646Z,66.30
2018-07-03T12:07:43.748Z,64.30
2018-07-03T12:10:13.847Z,65.40
2018-07-03T12:12:43.973Z,65.80
2018-07-03T12:15:14.164Z,62.30
2018-07-03T12:17:44.330Z,61.50
2018-07-03T12:20:14.480Z,61.20
2018-07-03T12:22:44.595Z,61.90
2018-07-03T12:25:14.728Z,60.50
2018-07-03T12:27:44.850Z,61.60
2018-07-03T12:30:15.020Z,59.80
2018-07-03T12:35:14.827Z,60.00
2018-07-03T12:37:44.901Z,60.60
2018-07-03T12:40:14.988Z,61.10
2018-07-03T12:42:45.084Z,61.90
2018-07-03T12:45:15.201Z,61.50
2018-07-03T12:47:45.288Z,59.90
2018-07-03T12:50:15.529Z,62.50
2018-07-03T12:52:45.648Z,61.00
2018-07-03T12:55:15.820Z,65.60
2018-07-03T12:57:45.904Z,64.70
2018-07-03T13:00:16.369Z,62.60
2018-07-03T13:02:46.468Z,63.20
2018-07-03T13:05:16.621Z,65.30
2018-07-03T13:07:46.858Z,65.20
2018-07-03T13:10:17.016Z,65.30
2018-07-03T13:12:47.104Z,67.80
2018-07-03T13:15:17.278Z,66.60
2018-07-03T13:17:47.401Z,67.70
2018-07-03T13:20:17.644Z,66.30
2018-07-03T13:22:47.740Z,65.20
2018-07-03T13:25:17.832Z,66.90
2018-07-03T13:27:47.932Z,67.50
2018-07-03T13:30:18.201Z,66.20
2018-07-03T13:32:48.358Z,66.60
2018-07-03T13:35:18.474Z,67.90
2018-07-03T13:37:48.593Z,67.00
2018-07-03T13:40:18.700Z,68.10
2018-07-03T13:42:50.437Z,67.40
2018-07-03T13:45:20.684Z,67.40
2018-07-03T13:47:50.824Z,65.90
2018-07-03T13:50:20.920Z,65.90
2018-07-03T13:52:51.027Z,65.30
2018-07-03T13:55:21.260Z,66.20
2018-07-03T13:57:51.388Z,69.50
2018-07-03T14:00:21.468Z,68.50
2018-07-03T14:02:51.592Z,69.50
2018-07-03T14:05:21.679Z,69.20
2018-07-03T14:07:51.772Z,68.00
2018-07-03T14:10:21.856Z,66.40
2018-07-03T14:12:51.927Z,67.80
2018-07-03T14:15:22.056Z,68.90
2018-07-03T14:17:52.137Z,69.70
2018-07-03T14:20:22.235Z,69.70
2018-07-03T14:22:52.308Z,69.80
2018-07-03T14:25:22.400Z,70.60
2018-07-03T14:27:52.592Z,70.00
2018-07-03T14:30:22.717Z,68.30
2018-07-03T14:32:52.911Z,67.60
2018-07-03T14:35:23.004Z,68.10
2018-07-03T14:37:53.104Z,68.00
2018-07-03T14:40:23.214Z,68.20
2018-07-03T14:42:53.469Z,68.30
2018-07-03T14:45:23.572Z,70.00
2018-07-03T14:47:53.675Z,68.70
2018-07-03T14:50:23.760Z,69.20
2018-07-03T14:52:53.848Z,69.30
2018-07-03T14:55:23.970Z,70.10
2018-07-03T15:00:23.966Z,71.40
2018-07-03T15:02:54.051Z,72.60
2018-07-03T15:05:24.244Z,72.60
2018-07-03T15:07:54.365Z,72.80
2018-07-03T15:10:25.632Z,73.00
2018-07-03T15:12:56.254Z,73.40
2018-07-03T15:15:26.892Z,73.90
2018-07-03T15:17:56.983Z,74.90
2018-07-03T15:20:27.145Z,75.60
2018-07-03T15:22:57.232Z,75.60
2018-07-03T15:25:27.380Z,76.50
2018-07-03T15:27:57.491Z,76.30
2018-07-03T15:30:27.583Z,76.80
2018-07-03T15:32:57.691Z,75.60
2018-07-03T15:35:27.795Z,74.20
2018-07-03T15:37:57.926Z,74.20
2018-07-03T15:40:28.161Z,73.70
2018-07-03T15:42:58.283Z,73.70
2018-07-03T15:45:28.360Z,74.80
2018-07-03T15:47:58.425Z,74.00
2018-07-03T15:50:28.520Z,74.70
2018-07-03T15:52:58.625Z,75.50
2018-07-03T15:55:28.731Z,76.00
2018-07-03T15:57:58.811Z,75.30
2018-07-03T16:00:28.918Z,74.80
2018-07-03T16:03:16.090Z,73.60
2018-07-03T16:06:09.684Z,73.40
2018-07-03T16:08:56.873Z,73.50
2018-07-03T16:11:26.968Z,73.40
2018-07-03T16:13:57.159Z,72.60
2018-07-03T16:16:27.275Z,71.90
2018-07-03T16:19:02.609Z,72.50
2018-07-03T16:21:32.708Z,72.50
2018-07-03T16:24:02.829Z,72.80
2018-07-03T16:26:32.900Z,72.90
2018-07-03T16:29:03.668Z,73.40
2018-07-03T16:31:33.768Z,73.20
2018-07-03T16:34:03.991Z,73.10
2018-07-03T16:36:34.096Z,73.00
2018-07-03T16:39:06.725Z,72.90
2018-07-03T16:41:36.875Z,72.40
2018-07-03T16:44:07.241Z,71.80
2018-07-03T16:46:37.602Z,72.10
2018-07-03T16:49:07.716Z,71.90
2018-07-03T16:54:07.700Z,75.60
2018-07-03T16:56:38.641Z,74.50
2018-07-03T16:59:08.703Z,76.00
2018-07-03T17:01:38.793Z,77.40
2018-07-03T17:04:08.882Z,76.50
2018-07-03T17:06:38.968Z,76.20
2018-07-03T17:09:11.165Z,76.60
2018-07-03T17:11:41.376Z,77.50
2018-07-03T17:14:11.724Z,78.00
2018-07-03T17:16:41.921Z,78.20
2018-07-03T17:19:17.225Z,78.50
2018-07-03T17:21:47.368Z,79.20
2018-07-03T17:24:17.452Z,79.70
2018-07-03T17:26:47.536Z,79.80
2018-07-03T17:29:17.616Z,80.30
2018-07-03T17:31:47.716Z,81.60
2018-07-03T17:34:18.392Z,82.10
2018-07-03T17:36:48.460Z,84.10
2018-07-03T17:39:19.620Z,87.00
2018-07-03T17:42:06.787Z,88.00
2018-07-03T17:45:50.864Z,88.20
2018-07-03T17:48:21.022Z,88.70
2018-07-03T17:50:51.136Z,90.00
2018-07-03T17:53:21.340Z,90.00
2018-07-03T17:55:51.460Z,90.30
2018-07-03T17:58:21.600Z,90.50
2018-07-03T18:00:51.688Z,90.70
2018-07-03T18:03:21.836Z,90.80
2018-07-03T18:05:51.944Z,90.90
2018-07-03T18:08:22.017Z,91.00
2018-07-03T18:10:52.154Z,91.20
2018-07-03T18:13:22.541Z,91.40
2018-07-03T18:15:52.636Z,91.60
2018-07-03T18:18:22.796Z,91.90
2018-07-03T18:20:52.896Z,92.10
2018-07-03T18:23:23.093Z,92.10
2018-07-03T18:25:53.164Z,92.50
2018-07-03T18:28:23.267Z,92.30
2018-07-03T18:30:53.416Z,92.40
2018-07-03T18:33:23.550Z,92.60
2018-07-03T18:35:53.680Z,92.80
2018-07-03T18:38:23.823Z,92.80
2018-07-03T18:40:53.981Z,92.80
2018-07-03T18:43:24.120Z,92.90
2018-07-03T18:45:54.336Z,93.20
2018-07-03T18:48:24.650Z,93.80
2018-07-03T18:50:54.760Z,94.10
2018-07-03T18:53:24.864Z,94.30
2018-07-03T18:55:54.981Z,94.60
2018-07-03T18:58:25.092Z,94.70
2018-07-03T19:00:55.248Z,94.70
2018-07-03T19:03:25.417Z,94.80
2018-07-03T19:05:55.517Z,94.90
2018-07-03T19:08:25.644Z,95.10
2018-07-03T19:10:55.764Z,95.20
2018-07-03T19:13:25.928Z,95.10
2018-07-03T19:15:56.004Z,95.10
2018-07-03T19:18:26.351Z,95.00
2018-07-03T19:20:56.688Z,95.00
2018-07-03T19:23:27.091Z,95.00
2018-07-03T19:25:57.252Z,95.00
2018-07-03T19:28:27.495Z,95.00
2018-07-03T19:30:57.588Z,95.00
2018-07-03T19:33:28.630Z,95.10
2018-07-03T19:35:59.171Z,95.00
2018-07-03T19:38:30.196Z,95.00
2018-07-03T19:41:00.905Z,94.90
2018-07-03T19:43:33.896Z,94.80
2018-07-03T19:46:05.555Z,94.60
2018-07-03T19:48:36.200Z,95.00
2018-07-03T19:51:06.885Z,94.90
2018-07-03T19:53:37.664Z,95.10
2018-07-03T19:56:08.221Z,95.20
2018-07-03T19:58:39.474Z,95.70
2018-07-03T20:01:10.125Z,95.80
2018-07-03T20:03:40.589Z,96.30
2018-07-03T20:06:11.237Z,96.00
2018-07-03T20:08:41.670Z,96.20
2018-07-03T20:11:12.298Z,96.30
2018-07-03T20:13:42.625Z,96.40
2018-07-03T20:16:13.536Z,96.60
2018-07-03T20:18:43.843Z,96.70
2018-07-03T20:21:14.866Z,96.90
2018-07-03T20:23:45.091Z,97.10
2018-07-03T20:26:15.173Z,97.30
2018-07-03T20:28:45.293Z,97.50
2018-07-03T20:31:15.472Z,97.60
2018-07-03T20:33:45.712Z,97.60
2018-07-03T20:36:15.854Z,97.70
2018-07-03T20:38:46.040Z,97.50
2018-07-03T20:41:16.193Z,97.70
2018-07-03T20:43:46.846Z,98.00
2018-07-03T20:47:20.509Z,98.10
2018-07-03T20:50:05.600Z,98.20
2018-07-03T20:53:11.044Z,98.30
2018-07-03T20:55:41.224Z,98.30
2018-07-03T20:58:11.452Z,98.30
2018-07-03T21:00:41.568Z,98.50
2018-07-03T21:03:12.290Z,98.60
2018-07-03T21:05:42.523Z,98.50
2018-07-03T21:08:12.649Z,98.80
2018-07-03T21:10:42.826Z,98.80
2018-07-03T21:13:14.040Z,98.80
2018-07-03T21:15:44.175Z,98.80
2018-07-03T21:18:14.271Z,98.90
2018-07-03T21:20:44.396Z,98.50
2018-07-03T21:23:16.390Z,98.60
2018-07-03T21:25:46.578Z,98.70
2018-07-03T21:28:16.693Z,98.70
2018-07-03T21:30:46.804Z,98.70
2018-07-03T21:33:17.007Z,98.80
2018-07-03T21:35:47.172Z,98.70
2018-07-03T21:38:17.276Z,98.80
2018-07-03T21:40:47.452Z,98.60
2018-07-03T21:43:18.454Z,98.40
2018-07-03T21:45:49.417Z,98.00
2018-07-03T21:48:19.582Z,98.10
2018-07-03T21:50:49.745Z,98.10
2018-07-03T21:53:19.852Z,97.90
2018-07-03T21:55:49.946Z,98.00
2018-07-03T21:58:20.041Z,98.00
2018-07-03T22:00:50.144Z,98.00
2018-07-03T22:03:20.273Z,98.00
2018-07-03T22:05:50.364Z,97.90
2018-07-03T22:08:20.501Z,97.70
2018-07-03T22:10:56.548Z,97.50
2018-07-03T22:13:26.729Z,97.30
2018-07-03T22:15:57.377Z,97.50
2018-07-03T22:18:27.501Z,97.60
2018-07-03T22:20:57.744Z,97.50
2018-07-03T22:23:27.856Z,97.60
2018-07-03T22:25:58.000Z,97.60
2018-07-03T22:28:28.100Z,97.70
2018-07-03T22:31:03.952Z,98.00
2018-07-03T22:33:36.150Z,98.10
2018-07-03T22:36:06.737Z,98.40
2018-07-03T22:38:36.912Z,98.50
2018-07-03T22:41:07.108Z,98.40
2018-07-03T22:43:37.256Z,97.90
2018-07-03T22:46:07.465Z,97.80
2018-07-03T22:48:37.677Z,97.50
2018-07-03T22:54:16.752Z,97.30
2018-07-03T22:57:01.895Z,97.20
2018-07-03T22:59:39.656Z,97.00
2018-07-03T23:02:10.403Z,97.00
2018-07-03T23:07:18.585Z,96.90
2018-07-03T23:10:08.356Z,97.00
2018-07-03T23:13:06.361Z,97.20
2018-07-03T23:15:36.944Z,97.60
2018-07-03T23:18:07.157Z,98.00
2018-07-03T23:20:37.328Z,98.40
2018-07-03T23:23:07.892Z,98.70
2018-07-03T23:25:37.996Z,98.90
2018-07-03T23:28:08.211Z,99.00
2018-07-03T23:30:38.296Z,99.20
2018-07-03T23:33:08.489Z,99.30
2018-07-03T23:35:38.586Z,99.40
2018-07-03T23:38:08.704Z,99.50
2018-07-03T23:40:38.850Z,99.60
2018-07-03T23:43:08.955Z,99.70
2018-07-03T23:45:57.911Z,99.40
2018-07-03T23:48:44.889Z,99.30
2018-07-03T23:51:31.892Z,99.10
2018-07-03T23:54:19.009Z,99.00
2018-07-03T23:57:06.125Z,98.60
2018-07-03T23:59:53.090Z,98.70
